Time;durP1;ratioP1;P1;durP2;ratioP2;P2;SDS_P1;SDS_P2;PMS_P1;PMS_P2;Temp;Humidity;BMP_temperature;BMP_pressure;BME280_temperature;BME280_humidity;BME280_pressure;Samples;Min_cycle;Max_cycle;Signal;HPM_P1;HPM_P2
2021/07/08 00:00:41;;;;;;;7.05;4.72;;;;;;;18.38;84.43;99935.42;1717307;83;20987;-66
2021/07/08 00:03:07;;;;;;;9.58;5.28;;;;;;;18.39;84.49;99934.91;1717336;83;21772;-66
2021/07/08 00:05:38;;;;;;;5.65;5.03;;;;;;;18.38;84.58;99943.80;1717394;83;21034;-66
2021/07/08 00:08:05;;;;;;;10.70;5.30;;;;;;;18.37;84.46;99941.63;1716925;82;21018;-66
2021/07/08 00:10:39;;;;;;;7.30;5.03;;;;;;;18.38;84.39;99947.74;1720717;83;21061;-66
2021/07/08 00:13:07;;;;;;;8.35;4.72;;;;;;;18.37;84.21;99942.10;1717291;83;20959;-66
2021/07/08 00:15:34;;;;;;;12.35;5.05;;;;;;;18.38;84.25;99941.16;1717257;83;23236;-66
2021/07/08 00:18:01;;;;;;;7.55;5.28;;;;;;;18.37;84.18;99940.31;1717099;83;21029;-67
2021/07/08 00:20:29;;;;;;;10.15;4.90;;;;;;;18.38;83.99;99943.80;1717198;83;20922;-66
2021/07/08 00:22:56;;;;;;;6.05;4.25;;;;;;;18.36;83.80;99940.41;1717098;82;20974;-66
2021/07/08 00:25:27;;;;;;;6.50;4.00;;;;;;;18.36;83.57;99941.73;1717513;83;21477;-66
2021/07/08 00:27:56;;;;;;;5.47;3.85;;;;;;;18.36;83.46;99943.05;1717310;83;21838;-67
2021/07/08 00:30:23;;;;;;;6.55;4.45;;;;;;;18.35;83.39;99944.83;1717287;83;21550;-66
2021/07/08 00:32:50;;;;;;;8.28;4.65;;;;;;;18.35;83.53;99936.94;1717345;83;20959;-66
2021/07/08 00:35:16;;;;;;;6.12;4.20;;;;;;;18.36;83.82;99945.68;1717289;83;20951;-66
2021/07/08 00:37:44;;;;;;;9.38;4.70;;;;;;;18.37;83.82;99942.95;1717265;83;21010;-66
2021/07/08 00:40:13;;;;;;;5.28;4.03;;;;;;;18.38;83.84;99943.32;1717408;83;21403;-66
2021/07/08 00:42:39;;;;;;;7.42;4.50;;;;;;;18.39;83.95;99943.66;1717225;83;21007;-66
2021/07/08 00:45:08;;;;;;;5.30;4.37;;;;;;;18.40;84.02;99940.08;1717450;83;20998;-66
2021/07/08 00:47:35;;;;;;;6.22;3.90;;;;;;;18.40;83.96;99938.77;1717601;83;21014;-66
2021/07/08 00:50:05;;;;;;;4.80;3.77;;;;;;;18.41;83.89;99940.92;1717258;83;21053;-66
2021/07/08 00:52:33;;;;;;;5.30;3.92;;;;;;;18.42;83.83;99943.46;1717154;82;21050;-66
2021/07/08 00:55:02;;;;;;;8.10;4.40;;;;;;;18.41;83.92;99941.77;1717109;83;21517;-66
2021/07/08 00:57:28;;;;;;;7.30;4.33;;;;;;;18.42;84.11;99944.78;1717520;83;21490;-66
2021/07/08 00:59:55;;;;;;;5.40;3.90;;;;;;;18.42;84.04;99936.88;1717249;83;20993;-66
2021/07/08 01:02:21;;;;;;;5.17;4.00;;;;;;;18.44;84.01;99939.41;1717654;83;21087;-66
2021/07/08 01:04:51;;;;;;;7.45;4.25;;;;;;;18.44;83.90;99942.05;1717169;82;21411;-66
2021/07/08 01:07:21;;;;;;;6.47;4.40;;;;;;;18.44;84.09;99940.73;1717135;83;20922;-67
2021/07/08 01:09:50;;;;;;;5.47;4.03;;;;;;;18.44;84.19;99942.89;1717162;83;20955;-66
2021/07/08 01:12:16;;;;;;;5.80;3.87;;;;;;;18.45;84.18;99943.27;1717213;82;20954;-66
2021/07/08 01:14:44;;;;;;;10.03;3.80;;;;;;;18.46;84.18;99944.11;1717289;83;21497;-66
2021/07/08 01:17:10;;;;;;;8.40;3.98;;;;;;;18.45;84.14;99943.73;1717209;83;23298;-66
2021/07/08 01:19:41;;;;;;;7.30;4.53;;;;;;;18.45;84.17;99946.37;1717027;83;20931;-66
2021/07/08 01:22:07;;;;;;;7.20;4.15;;;;;;;18.44;84.09;99949.95;1719727;82;21074;-66
2021/07/08 01:24:34;;;;;;;4.65;3.70;;;;;;;18.43;84.18;99953.05;1735308;82;21054;-66
2021/07/08 01:27:01;;;;;;;6.20;3.98;;;;;;;18.44;84.17;99953.42;1735241;82;21050;-66
2021/07/08 01:29:28;;;;;;;5.20;3.95;;;;;;;18.45;84.25;99945.05;1708254;82;21124;-66
2021/07/08 01:31:55;;;;;;;5.10;4.22;;;;;;;18.46;84.35;99948.06;1734963;82;20995;-66
2021/07/08 01:34:21;;;;;;;5.97;3.90;;;;;;;18.47;84.33;99946.64;1734995;82;21026;-66
2021/07/08 01:36:47;;;;;;;4.17;3.77;;;;;;;18.47;84.36;99951.06;1735055;82;21983;-66
2021/07/08 01:39:14;;;;;;;7.42;3.90;;;;;;;18.48;84.22;99952.75;1735032;82;20987;-67
2021/07/08 01:41:40;;;;;;;4.33;3.55;;;;;;;18.48;83.76;99953.60;1735026;82;21093;-66
2021/07/08 01:44:06;;;;;;;4.17;3.87;;;;;;;18.47;83.46;99955.86;1734937;82;20943;-66
2021/07/08 01:46:33;;;;;;;6.37;4.78;;;;;;;18.45;83.35;99951.16;1735264;82;21454;-66
2021/07/08 01:49:00;;;;;;;6.42;4.22;;;;;;;18.45;83.24;99954.27;1734919;82;22046;-66
2021/07/08 01:51:30;;;;;;;8.83;4.45;;;;;;;18.43;83.16;99953.52;1735017;82;20939;-66
2021/07/08 01:53:57;;;;;;;9.58;4.05;;;;;;;18.41;83.00;99957.58;1735483;82;21161;-66
2021/07/08 01:56:23;;;;;;;8.30;3.85;;;;;;;18.38;82.96;99953.01;1734934;82;20963;-66
2021/07/08 01:58:52;;;;;;;4.78;3.85;;;;;;;18.35;82.92;99955.37;1735314;82;21439;-66
2021/07/08 02:01:21;;;;;;;11.25;3.95;;;;;;;18.35;82.83;99965.05;1735060;82;20947;-66
2021/07/08 02:03:48;;;;;;;6.30;4.28;;;;;;;18.34;82.68;99960.27;1735037;82;21077;-66
2021/07/08 02:06:14;;;;;;;5.50;4.12;;;;;;;18.36;82.46;99966.27;1734994;82;21133;-66
2021/07/08 02:08:42;;;;;;;9.40;4.25;;;;;;;18.37;82.34;99965.80;1735005;82;21077;-66
2021/07/08 02:11:10;;;;;;;6.37;4.20;;;;;;;18.38;82.15;99964.86;1735020;82;20939;-66
2021/07/08 02:13:38;;;;;;;4.55;3.55;;;;;;;18.38;82.08;99963.55;1734982;82;20983;-67
2021/07/08 02:16:06;;;;;;;5.47;3.77;;;;;;;18.40;81.98;99966.42;1734944;82;21332;-66
2021/07/08 02:18:33;;;;;;;4.70;4.20;;;;;;;18.43;81.88;99963.59;1734980;82;21091;-66
2021/07/08 02:20:59;;;;;;;7.83;3.77;;;;;;;18.49;81.74;99967.14;1734922;82;20983;-66
2021/07/08 02:23:25;;;;;;;9.13;4.80;;;;;;;18.58;81.42;99971.78;1733960;82;21475;-66
2021/07/08 02:25:52;;;;;;;5.53;4.42;;;;;;;18.70;81.01;99972.81;1732961;82;20995;-66
2021/07/08 02:28:18;;;;;;;6.95;3.87;;;;;;;18.83;80.55;99972.81;1732891;82;21015;-66
2021/07/08 02:30:45;;;;;;;4.90;4.08;;;;;;;19.01;79.96;99969.41;1732959;82;21479;-66
2021/07/08 02:33:12;;;;;;;5.78;3.98;;;;;;;19.22;79.30;99982.44;1732796;82;20999;-66
2021/07/08 02:35:39;;;;;;;7.10;4.30;;;;;;;19.43;78.52;99980.10;1732891;82;20935;-66
2021/07/08 02:38:06;;;;;;;4.62;4.17;;;;;;;19.67;77.67;99976.25;1732922;82;20979;-66
2021/07/08 02:40:35;;;;;;;7.60;4.22;;;;;;;19.90;76.74;99980.27;1732954;82;21066;-66
2021/07/08 02:43:03;;;;;;;5.50;4.40;;;;;;;20.20;75.79;99986.91;1732880;82;21137;-66
2021/07/08 02:45:34;;;;;;;6.47;3.52;;;;;;;20.50;74.55;99986.49;1732862;82;21027;-67
2021/07/08 02:48:04;;;;;;;6.30;4.60;;;;;;;20.80;73.54;99984.18;1732891;82;21089;-66
2021/07/08 02:50:32;;;;;;;6.35;4.33;;;;;;;21.11;72.28;99984.50;1732919;82;21022;-66
2021/07/08 02:52:59;;;;;;;6.83;3.60;;;;;;;21.41;71.15;99998.02;1733022;82;20951;-66
2021/07/08 02:55:26;;;;;;;6.20;3.40;;;;;;;21.74;69.85;99995.88;1733089;82;21479;-66
2021/07/08 02:57:54;;;;;;;9.95;4.10;;;;;;;22.08;69.10;99989.22;1733024;82;47212;-66
2021/07/08 03:00:23;;;;;;;5.00;4.12;;;;;;;22.43;67.66;99993.81;1732954;82;21022;-67
2021/07/08 03:02:51;;;;;;;4.17;3.62;;;;;;;22.80;66.75;99998.25;1732901;82;21007;-66
2021/07/08 03:05:19;;;;;;;7.45;3.98;;;;;;;23.16;65.54;99997.47;1732988;82;21447;-67
2021/07/08 03:07:47;;;;;;;5.50;4.12;;;;;;;23.49;64.02;100003.00;1732960;82;20931;-67
2021/07/08 03:10:16;;;;;;;7.22;4.05;;;;;;;23.74;62.79;99998.60;1732856;82;20988;-67
2021/07/08 03:12:44;;;;;;;5.37;3.83;;;;;;;24.00;62.09;100001.59;1732975;82;21011;-67
2021/07/08 03:15:12;;;;;;;7.62;3.70;;;;;;;24.28;61.12;99998.68;1733341;82;21026;-67
2021/07/08 03:17:40;;;;;;;6.12;4.00;;;;;;;24.48;59.82;100004.86;1732982;82;20971;-67
2021/07/08 03:20:12;;;;;;;9.80;4.20;;;;;;;24.66;59.73;99998.70;1732973;82;21133;-67
2021/07/08 03:22:41;;;;;;;5.75;4.03;;;;;;;24.97;58.87;100003.90;1729891;82;21392;-67
2021/07/08 03:25:09;;;;;;;6.42;4.10;;;;;;;25.31;57.66;100009.06;1716474;82;21042;-67
2021/07/08 03:27:35;;;;;;;5.87;4.62;;;;;;;25.67;56.43;100005.25;1717226;83;21046;-67
2021/07/08 03:30:04;;;;;;;7.25;4.35;;;;;;;25.97;55.30;99996.98;1717102;83;21093;-67
2021/07/08 03:32:31;;;;;;;6.87;4.00;;;;;;;26.27;54.41;100002.94;1717193;83;21136;-67
2021/07/08 03:34:57;;;;;;;6.62;4.37;;;;;;;26.58;53.47;100000.27;1717079;83;20978;-67
2021/07/08 03:37:23;;;;;;;5.45;4.12;;;;;;;26.88;52.53;100011.05;1717008;83;20999;-67
2021/07/08 03:39:51;;;;;;;5.75;4.37;;;;;;;27.18;51.73;100009.78;1717064;83;20943;-67
2021/07/08 03:42:18;;;;;;;4.75;3.98;;;;;;;27.43;50.79;100004.09;1717071;83;20994;-67
2021/07/08 03:44:45;;;;;;;5.72;4.05;;;;;;;27.68;50.23;100011.28;1717153;83;21146;-67
2021/07/08 03:47:12;;;;;;;7.25;4.45;;;;;;;27.93;49.59;100014.06;1717225;83;21034;-66
2021/07/08 03:49:40;;;;;;;7.30;4.37;;;;;;;28.19;49.05;100012.11;1717211;83;21002;-68
2021/07/08 03:52:07;;;;;;;7.17;4.70;;;;;;;28.45;48.75;100010.70;1717249;83;21018;-65
2021/07/08 03:54:34;;;;;;;7.67;4.53;;;;;;;28.73;48.06;100012.58;1717150;83;21489;-65
2021/07/08 03:57:00;;;;;;;9.25;4.85;;;;;;;28.95;47.12;100009.76;1717131;83;21070;-65
2021/07/08 03:59:27;;;;;;;8.85;5.33;;;;;;;29.00;47.24;100014.09;1717154;83;20935;-65
2021/07/08 04:01:53;;;;;;;8.28;4.92;;;;;;;29.09;46.61;100005.89;1717354;83;21054;-65
2021/07/08 04:04:21;;;;;;;5.58;4.30;;;;;;;29.20;46.72;100014.56;1717123;83;20991;-65
2021/07/08 04:06:47;;;;;;;9.85;4.65;;;;;;;29.43;46.33;100008.35;1717031;83;21089;-66
2021/07/08 04:09:13;;;;;;;5.53;4.37;;;;;;;29.71;45.46;100014.64;1717432;81;21790;-65
2021/07/08 04:11:40;;;;;;;7.47;4.40;;;;;;;29.72;44.88;100017.66;1717223;83;20948;-65
2021/07/08 04:14:06;;;;;;;6.12;4.00;;;;;;;29.51;45.53;100016.89;1717343;81;21410;-65
2021/07/08 04:16:33;;;;;;;8.20;3.90;;;;;;;29.58;45.65;100016.51;1717139;83;20990;-65
2021/07/08 04:19:02;;;;;;;5.33;4.58;;;;;;;29.71;45.53;100019.50;1717030;83;20942;-66
2021/07/08 04:21:29;;;;;;;4.70;4.03;;;;;;;29.89;45.11;100024.63;1717066;83;21134;-65
2021/07/08 04:23:55;;;;;;;4.90;3.72;;;;;;;29.96;44.81;100020.75;1716899;83;21468;-65
2021/07/08 04:26:23;;;;;;;4.72;4.22;;;;;;;29.99;45.23;100025.27;1717075;83;21042;-66
2021/07/08 04:28:50;;;;;;;6.67;4.62;;;;;;;30.27;44.94;100022.94;1717107;83;20970;-66
2021/07/08 04:31:17;;;;;;;5.28;4.47;;;;;;;30.62;44.40;100022.06;1717122;83;20942;-65
2021/07/08 04:33:46;;;;;;;8.15;4.12;;;;;;;30.70;43.96;100022.85;1717049;83;21191;-65
2021/07/08 04:36:13;;;;;;;6.65;4.40;;;;;;;30.83;43.76;100027.09;1717140;83;20994;-66
2021/07/08 04:38:41;;;;;;;6.87;4.55;;;;;;;30.92;43.31;100025.19;1717112;83;20947;-66
2021/07/08 04:41:09;;;;;;;7.70;4.53;;;;;;;31.00;43.90;100027.78;1717162;83;20999;-66
2021/07/08 04:43:36;;;;;;;6.67;4.50;;;;;;;31.15;43.60;100033.25;1717180;83;21490;-66
2021/07/08 04:46:02;;;;;;;5.25;4.45;;;;;;;31.32;43.32;100036.09;1717049;83;23262;-66
2021/07/08 04:48:29;;;;;;;4.95;4.25;;;;;;;31.61;43.07;100030.39;1717069;83;20955;-66
2021/07/08 04:50:55;;;;;;;7.30;5.40;;;;;;;31.92;42.47;100036.95;1717155;83;20994;-66
2021/07/08 04:53:22;;;;;;;6.90;4.35;;;;;;;32.22;41.98;100040.45;1717346;83;20997;-66
2021/07/08 04:55:49;;;;;;;10.65;4.78;;;;;;;32.50;41.65;100040.05;1717182;83;20979;-66
2021/07/08 04:58:15;;;;;;;8.80;5.20;;;;;;;32.58;41.63;100041.77;1717253;83;21049;-66
2021/07/08 05:00:41;;;;;;;5.12;4.30;;;;;;;32.75;41.25;100041.38;1717070;83;21037;-66
2021/07/08 05:03:09;;;;;;;5.75;4.80;;;;;;;33.05;40.36;100049.28;1717291;83;21447;-66
2021/07/08 05:05:36;;;;;;;8.00;5.33;;;;;;;33.24;40.28;100045.91;1717116;83;21045;-66
2021/07/08 05:08:05;;;;;;;10.20;6.90;;;;;;;33.44;39.83;100044.73;1715041;83;21045;-66
2021/07/08 05:10:32;;;;;;;8.55;5.12;;;;;;;33.64;39.53;100052.43;1714509;83;21111;-66
2021/07/08 05:13:00;;;;;;;7.12;4.92;;;;;;;33.75;39.10;100045.14;1717074;83;20939;-65
2021/07/08 05:15:27;;;;;;;6.17;4.67;;;;;;;33.88;38.49;100045.75;1717299;83;21569;-65
2021/07/08 05:17:53;;;;;;;10.58;5.00;;;;;;;33.92;38.51;100046.19;1717338;83;21002;-66
2021/07/08 05:20:20;;;;;;;5.97;4.70;;;;;;;33.96;38.40;100050.16;1717247;83;20954;-66
2021/07/08 05:22:47;;;;;;;7.75;5.05;;;;;;;34.08;38.30;100049.36;1717131;83;21111;-66
2021/07/08 05:25:16;;;;;;;16.48;8.98;;;;;;;34.34;38.15;100056.77;1719515;82;21094;-66
2021/07/08 05:27:43;;;;;;;8.88;5.00;;;;;;;34.51;37.70;100055.34;1719716;83;21059;-66
2021/07/08 05:30:11;;;;;;;6.10;4.92;;;;;;;34.60;37.58;100049.73;1718391;83;20978;-66
2021/07/08 05:32:38;;;;;;;6.45;4.65;;;;;;;34.69;37.31;100056.63;1716133;83;22439;-66
2021/07/08 05:35:06;;;;;;;8.65;5.10;;;;;;;34.77;37.09;100053.73;1717770;83;21055;-66
2021/07/08 05:37:32;;;;;;;10.35;4.83;;;;;;;34.87;37.30;100059.06;1719705;83;21053;-66
2021/07/08 05:39:58;;;;;;;9.53;5.30;;;;;;;34.98;36.75;100059.47;1720074;83;20986;-66
2021/07/08 05:42:25;;;;;;;8.50;7.58;;;;;;;35.06;36.82;100062.81;1719692;83;21498;-66
2021/07/08 05:44:51;;;;;;;7.78;5.08;;;;;;;35.15;36.67;100062.93;1718785;83;21403;-66
2021/07/08 05:47:18;;;;;;;6.60;4.25;;;;;;;35.31;36.37;100058.16;1716168;83;21139;-66
2021/07/08 05:49:45;;;;;;;8.40;4.50;;;;;;;35.42;35.77;100062.91;1717359;83;21038;-66
2021/07/08 05:52:11;;;;;;;5.37;4.85;;;;;;;35.39;35.75;100061.46;1719640;83;21612;-67
2021/07/08 05:54:38;;;;;;;7.97;5.00;;;;;;;35.37;35.93;100061.39;1719720;83;20990;-67
2021/07/08 05:57:06;;;;;;;11.93;4.65;;;;;;;35.28;35.96;100062.11;1719795;83;21065;-67
2021/07/08 05:59:32;;;;;;;8.23;4.67;;;;;;;35.08;36.33;100064.79;1719799;83;21750;-67
2021/07/08 06:01:58;;;;;;;9.55;4.67;;;;;;;34.95;36.47;100071.55;1719698;82;20942;-66
2021/07/08 06:04:25;;;;;;;8.33;5.25;;;;;;;34.80;36.88;100074.43;1719701;83;21054;-66
2021/07/08 06:06:52;;;;;;;12.37;5.10;;;;;;;34.62;37.44;100073.33;1719764;83;21009;-67
2021/07/08 06:09:19;;;;;;;6.72;4.97;;;;;;;34.35;37.67;100072.45;1719554;82;20962;-67
2021/07/08 06:11:45;;;;;;;5.95;4.35;;;;;;;33.99;38.26;100070.80;1719684;83;21282;-66
2021/07/08 06:14:12;;;;;;;10.28;5.35;;;;;;;33.71;39.15;100080.80;1719694;83;21520;-66
2021/07/08 06:16:38;;;;;;;12.53;6.05;;;;;;;33.54;39.68;100077.08;1719586;83;20891;-66
2021/07/08 06:19:05;;;;;;;16.85;6.10;;;;;;;33.42;39.82;100081.33;1719610;83;21002;-66
2021/07/08 06:21:31;;;;;;;10.63;5.03;;;;;;;33.26;39.69;100076.23;1720138;83;21043;-66
2021/07/08 06:23:58;;;;;;;9.15;5.58;;;;;;;33.13;39.90;100076.11;1719508;82;21147;-66
2021/07/08 06:26:24;;;;;;;5.50;5.00;;;;;;;32.98;40.44;100079.38;1719966;83;20938;-67
2021/07/08 06:28:51;;;;;;;7.15;4.72;;;;;;;32.92;40.54;100078.83;1719851;82;21387;-66
2021/07/08 06:31:17;;;;;;;11.05;6.08;;;;;;;32.91;40.56;100083.89;1719659;83;20958;-65
2021/07/08 06:33:44;;;;;;;8.35;4.83;;;;;;;32.88;40.64;100084.27;1719743;83;20986;-66
2021/07/08 06:36:11;;;;;;;6.92;5.15;;;;;;;32.82;40.74;100091.25;1719651;83;21063;-66
2021/07/08 06:38:37;;;;;;;9.10;5.03;;;;;;;32.69;40.82;100091.09;1719583;83;20971;-66
2021/07/08 06:41:04;;;;;;;9.23;6.65;;;;;;;32.55;41.41;100094.69;1719487;82;20994;-66
2021/07/08 06:43:30;;;;;;;13.88;10.58;;;;;;;32.42;41.59;100096.19;1742992;82;21034;-67
2021/07/08 06:45:57;;;;;;;13.08;6.58;;;;;;;32.30;41.63;100095.02;1744645;82;20975;-66
2021/07/08 06:48:23;;;;;;;6.78;5.40;;;;;;;32.18;41.93;100098.66;1683838;85;21163;-67
2021/07/08 06:50:50;;;;;;;8.80;5.70;;;;;;;32.11;42.04;100095.57;1699759;84;20971;-67
2021/07/08 06:53:16;;;;;;;7.62;5.40;;;;;;;31.97;42.23;100102.64;1680488;85;22169;-67
2021/07/08 06:55:43;;;;;;;6.25;5.65;;;;;;;31.82;42.92;100105.83;1696091;84;21541;-67
2021/07/08 06:58:10;;;;;;;8.23;6.12;;;;;;;31.64;42.94;100102.13;1683817;85;20956;-67
2021/07/08 07:00:38;;;;;;;10.65;5.12;;;;;;;31.43;43.95;100097.45;1699321;84;21150;-66
2021/07/08 07:03:06;;;;;;;11.53;6.40;;;;;;;31.22;43.88;100095.97;1683827;85;21147;-67
2021/07/08 07:05:33;;;;;;;6.92;5.42;;;;;;;31.01;44.28;100105.19;1699783;84;21046;-66
2021/07/08 07:07:59;;;;;;;13.68;5.80;;;;;;;30.81;45.03;100100.80;1683816;85;21015;-67
2021/07/08 07:10:27;;;;;;;10.45;5.72;;;;;;;30.62;45.69;100094.55;1699714;84;21039;-66
2021/07/08 07:12:56;;;;;;;5.17;4.67;;;;;;;30.50;46.22;100098.97;1683845;84;21068;-66
2021/07/08 07:15:26;;;;;;;10.03;4.85;;;;;;;30.38;46.42;100094.15;1699662;84;21054;-66
2021/07/08 07:17:52;;;;;;;7.65;4.92;;;;;;;30.27;46.31;100099.92;1684055;85;21101;-66
2021/07/08 07:20:19;;;;;;;8.05;5.17;;;;;;;30.20;46.58;100105.14;1699678;84;20959;-66
2021/07/08 07:22:48;;;;;;;6.55;4.83;;;;;;;30.12;46.80;100102.01;1683819;85;21007;-67
2021/07/08 07:25:16;;;;;;;9.90;5.20;;;;;;;30.07;46.68;100103.53;1699624;84;21146;-67
2021/07/08 07:27:43;;;;;;;6.72;4.62;;;;;;;30.03;46.82;100105.72;1700179;84;21003;-66
2021/07/08 07:30:13;;;;;;;6.30;4.72;;;;;;;30.01;47.36;100111.76;1688935;85;21078;-67
2021/07/08 07:32:39;;;;;;;10.72;4.62;;;;;;;30.00;47.03;100111.42;1691808;84;21468;-66
2021/07/08 07:35:07;;;;;;;14.73;5.03;;;;;;;29.90;47.35;100109.42;1688991;85;21551;-67
2021/07/08 07:37:33;;;;;;;5.00;4.33;;;;;;;29.88;46.89;100114.13;1692430;84;21075;-65
2021/07/08 07:40:00;;;;;;;6.10;4.67;;;;;;;29.89;46.42;100113.62;1680709;84;20979;-66
2021/07/08 07:42:26;;;;;;;8.68;5.08;;;;;;;29.94;46.42;100117.97;1688577;84;21006;-66
2021/07/08 07:44:53;;;;;;;9.43;4.87;;;;;;;29.95;46.40;100111.09;1709766;83;21067;-64
2021/07/08 07:47:20;;;;;;;10.50;4.47;;;;;;;29.98;46.76;100114.78;1685239;83;21417;-65
2021/07/08 07:49:48;;;;;;;6.22;3.85;;;;;;;30.02;45.92;100118.80;1685244;85;21036;-63
2021/07/08 07:52:16;;;;;;;7.60;4.60;;;;;;;30.05;45.14;100111.75;1685244;85;21046;-64
2021/07/08 07:54:43;;;;;;;5.90;5.17;;;;;;;30.08;45.82;100111.91;1685502;83;21064;-66
2021/07/08 07:57:09;;;;;;;7.50;4.28;;;;;;;30.09;45.90;100113.59;1690363;83;20998;-65
2021/07/08 07:59:37;;;;;;;14.30;5.58;;;;;;;30.16;46.09;100114.58;1714009;82;21509;-66
2021/07/08 08:02:11;;;;;;;9.88;4.60;;;;;;;30.29;46.28;100116.69;1713926;83;21510;-67
2021/07/08 08:04:46;;;;;;;5.97;4.58;;;;;;;30.37;45.63;100119.34;1713974;83;21068;-67
2021/07/08 08:09:56;;;;;;;5.55;4.55;;;;;;;30.52;45.38;100122.95;1713871;83;20989;-66
2021/07/08 08:12:23;;;;;;;12.33;4.20;;;;;;;30.66;45.20;100125.41;1713852;82;21533;-65
2021/07/08 08:14:50;;;;;;;10.35;3.67;;;;;;;30.74;44.01;100129.40;1713857;83;21118;-66
2021/07/08 08:17:17;;;;;;;4.92;3.75;;;;;;;30.82;43.49;100125.30;1713911;82;20945;-66
2021/07/08 08:19:43;;;;;;;6.12;4.15;;;;;;;30.91;43.03;100124.24;1713962;83;21490;-67
2021/07/08 08:22:11;;;;;;;8.68;4.25;;;;;;;30.97;42.83;100126.73;1713969;82;21960;-66
2021/07/08 08:24:39;;;;;;;10.10;3.67;;;;;;;31.08;43.00;100127.13;1710600;83;21042;-65
2021/07/08 08:27:06;;;;;;;6.37;4.30;;;;;;;31.24;42.42;100130.73;1698842;83;21130;-65
2021/07/08 08:29:33;;;;;;;7.95;4.05;;;;;;;31.39;41.68;100132.95;1698834;83;21141;-65
2021/07/08 08:31:59;;;;;;;5.53;3.67;;;;;;;31.53;41.58;100125.44;1698874;83;20935;-65
2021/07/08 08:34:26;;;;;;;9.45;4.10;;;;;;;31.69;40.87;100126.65;1687992;84;21015;-65
2021/07/08 08:36:53;;;;;;;7.53;4.40;;;;;;;31.82;41.13;100131.38;1677130;85;21094;-65
2021/07/08 08:39:19;;;;;;;4.33;3.47;;;;;;;31.93;41.35;100127.41;1676941;85;21140;-65
2021/07/08 08:41:46;;;;;;;11.00;5.08;;;;;;;31.96;41.44;100127.88;1677140;85;21652;-66
2021/07/08 08:44:12;;;;;;;9.68;4.87;;;;;;;31.97;41.18;100130.89;1677019;84;21125;-66
2021/07/08 08:46:39;;;;;;;6.92;4.28;;;;;;;32.00;41.09;100137.73;1679227;84;21014;-64
2021/07/08 08:49:05;;;;;;;5.55;4.22;;;;;;;31.93;41.38;100134.14;1690620;84;21023;-65
2021/07/08 08:51:32;;;;;;;8.15;4.25;;;;;;;31.74;42.13;100139.55;1677023;85;21271;-65
2021/07/08 08:53:59;;;;;;;9.30;4.17;;;;;;;31.64;42.79;100140.28;1701569;84;21415;-66
2021/07/08 08:56:27;;;;;;;11.63;4.50;;;;;;;31.65;42.83;100131.20;1705529;82;20991;-66
2021/07/08 08:58:53;;;;;;;9.33;4.30;;;;;;;31.69;42.04;100137.41;1705194;84;21062;-66
2021/07/08 09:01:20;;;;;;;7.17;3.55;;;;;;;31.73;41.26;100131.99;1705546;84;20959;-65
2021/07/08 09:03:47;;;;;;;8.40;3.95;;;;;;;31.83;40.82;100133.89;1704275;84;21046;-66
2021/07/08 09:06:15;;;;;;;10.78;4.12;;;;;;;31.99;40.26;100132.86;1704848;84;20999;-66
2021/07/08 09:08:50;;;;;;;4.22;3.90;;;;;;;32.13;39.66;100122.63;1705777;84;21618;-66
2021/07/08 09:11:20;;;;;;;7.35;3.95;;;;;;;32.24;39.56;100121.84;1705333;84;20975;-65
2021/07/08 09:13:57;;;;;;;6.22;4.20;;;;;;;32.36;39.23;100123.05;1705662;84;20963;-66
2021/07/08 09:16:31;;;;;;;6.80;4.00;;;;;;;32.45;38.43;100124.08;1700317;84;21122;-64
2021/07/08 09:19:18;;;;;;;7.17;3.70;;;;;;;32.50;39.19;100125.70;1700861;84;21508;-66
2021/07/08 09:21:52;;;;;;;9.13;3.72;;;;;;;32.56;38.30;100121.94;1680947;85;21000;-66
2021/07/08 09:24:27;;;;;;;7.10;3.92;;;;;;;32.62;38.42;100122.50;1744770;82;20971;-65
2021/07/08 09:27:00;;;;;;;6.50;3.12;;;;;;;32.64;37.82;100128.02;1745278;82;21014;-65
2021/07/08 09:29:35;;;;;;;8.73;4.77;;;;;;;32.62;37.13;100127.38;1741806;82;21140;-65
2021/07/08 09:32:14;;;;;;;3.65;3.10;;;;;;;32.62;37.05;100135.45;1745116;82;21587;-65
2021/07/08 09:34:42;;;;;;;6.10;3.77;;;;;;;32.61;36.70;100131.61;1745400;82;20956;-66
2021/07/08 09:37:16;;;;;;;3.90;3.25;;;;;;;32.48;37.04;100129.61;1681034;85;20964;-66
2021/07/08 09:39:47;;;;;;;5.45;3.05;;;;;;;32.43;37.16;100127.47;1681229;85;21019;-66
2021/07/08 09:42:19;;;;;;;3.30;3.08;;;;;;;32.41;36.94;100128.17;1681001;85;21142;-66
2021/07/08 09:44:47;;;;;;;4.35;3.20;;;;;;;32.36;36.36;100131.96;1679084;85;20856;-66
2021/07/08 09:47:24;;;;;;;7.90;3.35;;;;;;;32.18;36.11;100128.26;1680968;84;20999;-66
2021/07/08 09:49:51;;;;;;;4.67;3.22;;;;;;;31.98;36.56;100134.39;1681013;85;21030;-67
2021/07/08 09:52:18;;;;;;;3.17;2.62;;;;;;;31.79;37.03;100133.92;1680939;85;21015;-66
2021/07/08 09:55:13;;;;;;;3.80;3.20;;;;;;;31.77;36.85;100136.50;1681069;85;21856;-67
2021/07/08 09:57:40;;;;;;;5.08;2.98;;;;;;;31.76;37.10;100130.80;1679211;85;20979;-67
2021/07/08 10:00:24;;;;;;;5.10;3.00;;;;;;;31.79;37.22;100128.55;1745064;82;20995;-66
2021/07/08 10:02:52;;;;;;;5.95;3.10;;;;;;;31.83;36.83;100136.58;1744508;82;21534;-65
2021/07/08 10:05:20;;;;;;;7.17;2.98;;;;;;;31.84;36.66;100123.45;1744572;82;20999;-65
2021/07/08 10:07:48;;;;;;;8.38;3.33;;;;;;;31.91;36.75;100127.59;1745244;82;20975;-65
2021/07/08 10:10:17;;;;;;;8.80;2.85;;;;;;;31.98;36.67;100128.50;1745220;82;21471;-66
2021/07/08 10:12:46;;;;;;;5.15;3.27;;;;;;;32.05;36.05;100132.13;1745152;82;20982;-65
2021/07/08 10:15:14;;;;;;;7.85;3.50;;;;;;;32.15;35.82;100131.35;1680871;85;21549;-67
2021/07/08 10:17:42;;;;;;;7.53;2.77;;;;;;;32.19;35.73;100131.78;1745274;82;21030;-66
2021/07/08 10:20:12;;;;;;;13.28;4.50;;;;;;;32.23;35.13;100126.90;1680951;85;21218;-65
2021/07/08 10:22:38;;;;;;;3.27;2.98;;;;;;;32.27;35.47;100122.81;1681067;84;20967;-66
2021/07/08 10:25:06;;;;;;;6.12;3.58;;;;;;;32.36;35.36;100123.05;1745988;82;21062;-65
2021/07/08 10:27:34;;;;;;;8.43;3.12;;;;;;;32.40;35.33;100121.11;1686078;85;21074;-64
2021/07/08 10:30:01;;;;;;;3.55;2.85;;;;;;;32.44;35.31;100121.06;1698567;82;21079;-65
2021/07/08 10:32:27;;;;;;;5.42;3.10;;;;;;;32.52;35.29;100123.66;1722473;82;21217;-65
2021/07/08 10:34:54;;;;;;;3.42;2.65;;;;;;;32.61;35.36;100126.22;1717727;83;21037;-66
2021/07/08 10:37:33;;;;;;;5.42;2.60;;;;;;;32.72;34.87;100123.05;1718747;83;20998;-66
2021/07/08 10:40:00;;;;;;;11.00;6.25;;;;;;;32.66;35.15;100115.72;1722695;83;21009;-65
2021/07/08 10:42:46;;;;;;;5.95;3.50;;;;;;;32.55;35.79;100121.10;1722544;82;21044;-66
2021/07/08 10:45:46;;;;;;;6.15;3.17;;;;;;;32.52;35.69;100123.66;1722647;83;21575;-66
2021/07/08 10:48:17;;;;;;;3.87;2.90;;;;;;;32.51;35.35;100121.98;1722495;83;21068;-65
2021/07/08 10:50:48;;;;;;;6.17;3.20;;;;;;;32.44;35.53;100117.03;1722348;83;21005;-65
2021/07/08 10:53:37;;;;;;;14.40;6.83;;;;;;;32.28;35.61;100122.63;1722662;83;20992;-66
2021/07/08 10:56:12;;;;;;;7.35;3.62;;;;;;;32.07;36.22;100116.63;1696420;83;21016;-66
2021/07/08 10:58:57;;;;;;;8.63;3.15;;;;;;;31.90;36.07;100109.78;1722653;82;22016;-65
2021/07/08 11:01:27;;;;;;;6.83;3.07;;;;;;;31.90;36.15;100108.44;1722421;82;21097;-67
2021/07/08 11:04:00;;;;;;;5.97;2.77;;;;;;;31.99;35.82;100107.81;1737008;82;21023;-65
2021/07/08 11:06:34;;;;;;;5.87;2.90;;;;;;;32.07;35.58;100107.22;1722371;83;20965;-66
2021/07/08 11:09:18;;;;;;;5.10;2.80;;;;;;;32.15;35.89;100106.29;1738322;82;21377;-65
2021/07/08 11:11:52;;;;;;;6.22;3.15;;;;;;;32.17;35.72;100110.44;1667722;85;21156;-65
2021/07/08 11:14:27;;;;;;;4.15;3.20;;;;;;;32.08;35.78;100110.74;1713483;83;20954;-65
2021/07/08 11:17:13;;;;;;;4.37;2.98;;;;;;;32.00;35.57;100104.10;1716148;83;21061;-65
2021/07/08 11:19:46;;;;;;;2.72;2.42;;;;;;;31.93;35.55;100103.20;1710301;83;21484;-65
2021/07/08 11:22:25;;;;;;;3.47;2.47;;;;;;;31.91;36.09;100100.69;1713682;82;21093;-66
2021/07/08 11:24:53;;;;;;;2.70;2.50;;;;;;;31.93;35.68;100095.96;1716038;83;21146;-64
2021/07/08 11:27:37;;;;;;;4.90;4.40;;;;;;;31.90;34.83;100100.88;1707696;83;20942;-66
2021/07/08 11:30:16;;;;;;;4.42;2.80;;;;;;;31.81;35.56;100102.30;1696130;84;21081;-66
2021/07/08 11:32:58;;;;;;;3.10;2.80;;;;;;;31.73;36.16;100098.37;1696605;83;21101;-66
2021/07/08 11:35:39;;;;;;;3.60;2.45;;;;;;;31.72;35.58;100091.83;1698231;83;21054;-66